Terminal Aerodrome Forecast
Issued by NWS Caribou, ME

Home | Current Version | Previous Version | Text Only | Print | Product List | Glossary On
Versions: 1 2 3 4 5 6 7 8 9 10 11 12 13 14 15 16 17 18 19 20 21 22 23 24 25 26 27 28 29 30 31 32 33 34
000
FTUS41 KCAR 250500 RRA
TAFCAR
TAF
KCAR 250559Z 2506/2606 33008G15KT P6SM OVC025
     FM251500 33012G20KT P6SM BKN035 OVC050
     FM252300 34005KT P6SM SCT050=

USA.gov is the U.S. government's official web portal to all federal, state and local government web resources and services.